Time;durP1;ratioP1;P1;durP2;ratioP2;P2;SDS_P1;SDS_P2;PMS_P1;PMS_P2;Temp;Humidity;BMP_temperature;BMP_pressure;BME280_temperature;BME280_humidity;BME280_pressure;Samples;Min_cycle;Max_cycle;Signal;HPM_P1;HPM_P2
2024/03/27 00:01:43;;;;;;;12.10;6.60;;;11.00;77.40;;;;;;5014348;28;20028;-94
2024/03/27 00:04:09;;;;;;;9.43;6.32;;;10.90;77.60;;;;;;5013663;28;20040;-90
2024/03/27 00:06:35;;;;;;;10.20;6.63;;;11.00;78.50;;;;;;5009163;28;20033;-93
2024/03/27 00:09:01;;;;;;;12.48;6.82;;;11.00;79.30;;;;;;5006297;28;20030;-92
2024/03/27 00:11:27;;;;;;;10.77;6.78;;;11.00;79.00;;;;;;5014967;28;20014;-91
2024/03/27 00:13:53;;;;;;;11.50;6.95;;;10.90;77.20;;;;;;5014371;28;20030;-93
2024/03/27 00:16:19;;;;;;;10.90;6.40;;;11.00;76.70;;;;;;5013733;28;20033;-91
2024/03/27 00:18:45;;;;;;;10.80;6.95;;;11.10;77.00;;;;;;5008704;28;20023;-93
2024/03/27 00:21:11;;;;;;;10.27;6.95;;;11.10;77.30;;;;;;5006368;28;20041;-93
2024/03/27 00:23:36;;;;;;;9.38;7.18;;;11.10;77.60;;;;;;5014117;28;20030;-93
2024/03/27 00:26:02;;;;;;;9.70;6.30;;;11.10;78.90;;;;;;5011370;28;20417;-92
2024/03/27 00:28:28;;;;;;;10.05;7.15;;;11.10;78.50;;;;;;4998597;28;20033;-92
2024/03/27 00:30:54;;;;;;;12.50;7.90;;;11.00;79.60;;;;;;5011938;28;20077;-94
2024/03/27 00:33:20;;;;;;;11.48;6.93;;;11.10;80.00;;;;;;5013955;28;20034;-92
2024/03/27 00:35:58;;;;;;;9.68;6.28;;;11.10;80.30;;;;;;5012053;28;20203;-94
2024/03/27 00:38:27;;;;;;;10.35;6.90;;;11.10;80.10;;;;;;5009681;28;20038;-93
2024/03/27 00:40:53;;;;;;;8.25;6.22;;;11.20;79.90;;;;;;5009141;28;20026;-92
2024/03/27 00:43:21;;;;;;;13.00;7.05;;;11.20;80.00;;;;;;5016113;28;20121;-95
2024/03/27 00:45:46;;;;;;;10.77;7.15;;;11.30;80.70;;;;;;5017869;28;20034;-93
2024/03/27 00:48:12;;;;;;;11.73;7.30;;;11.20;80.80;;;;;;5017941;28;20021;-93
2024/03/27 00:50:38;;;;;;;11.73;6.57;;;11.20;81.30;;;;;;5017871;28;20021;-93
2024/03/27 00:53:04;;;;;;;14.57;7.80;;;11.20;81.20;;;;;;5007067;28;20025;-93
2024/03/27 00:55:30;;;;;;;12.45;6.95;;;11.00;81.70;;;;;;5018429;28;20388;-94
2024/03/27 00:57:56;;;;;;;7.18;5.93;;;10.90;81.90;;;;;;5017691;28;20029;-93
2024/03/27 01:00:23;;;;;;;10.48;6.00;;;10.90;81.90;;;;;;5017250;28;20105;-94
2024/03/27 01:02:49;;;;;;;9.77;5.97;;;10.80;82.60;;;;;;5016076;28;20033;-92
2024/03/27 01:05:27;;;;;;;11.38;6.97;;;10.80;82.50;;;;;;5017480;28;20099;-92
2024/03/27 01:07:53;;;;;;;11.00;6.50;;;10.80;82.50;;;;;;5010979;28;20088;-91
2024/03/27 01:10:19;;;;;;;9.80;6.32;;;10.70;83.20;;;;;;5005674;28;20670;-93
2024/03/27 01:12:45;;;;;;;10.02;7.10;;;10.60;83.10;;;;;;5017147;28;20018;-93
2024/03/27 01:15:11;;;;;;;9.32;6.35;;;10.70;81.80;;;;;;5010760;28;20022;-91
2024/03/27 01:17:36;;;;;;;9.98;6.90;;;10.70;81.30;;;;;;5000710;28;20488;-92
2024/03/27 01:20:05;;;;;;;10.63;6.60;;;10.70;82.30;;;;;;5014745;28;20026;-94
2024/03/27 01:22:31;;;;;;;9.32;6.72;;;10.70;83.30;;;;;;5008152;28;20026;-93
2024/03/27 01:24:56;;;;;;;8.45;6.38;;;10.70;83.20;;;;;;5015421;28;20092;-94
2024/03/27 01:27:22;;;;;;;9.27;6.88;;;10.70;83.30;;;;;;5019212;28;20025;-92
2024/03/27 01:29:48;;;;;;;11.82;6.82;;;10.70;83.30;;;;;;5017191;28;20026;-92
2024/03/27 01:32:13;;;;;;;8.60;7.45;;;10.60;84.30;;;;;;5016874;28;20034;-93
2024/03/27 01:34:39;;;;;;;7.85;6.03;;;10.60;85.50;;;;;;5016152;28;20539;-93
2024/03/27 01:37:04;;;;;;;10.90;7.70;;;10.40;86.10;;;;;;5017246;28;20030;-92
2024/03/27 01:39:30;;;;;;;13.35;6.82;;;10.40;86.40;;;;;;5017677;28;20042;-91
2024/03/27 01:41:56;;;;;;;12.27;6.68;;;10.30;86.70;;;;;;5015695;28;20033;-93
2024/03/27 01:44:24;;;;;;;11.20;6.72;;;10.30;86.50;;;;;;5015857;28;20037;-93
2024/03/27 01:46:50;;;;;;;10.80;7.10;;;10.20;86.50;;;;;;5016733;28;20022;-90
2024/03/27 01:49:18;;;;;;;12.65;6.82;;;10.10;87.00;;;;;;5016757;28;20029;-92
2024/03/27 01:51:44;;;;;;;9.73;6.63;;;10.00;88.50;;;;;;5016452;28;20028;-94
2024/03/27 01:54:12;;;;;;;9.88;6.50;;;9.80;89.30;;;;;;5012307;28;20019;-93
2024/03/27 01:56:38;;;;;;;10.93;7.30;;;9.90;88.70;;;;;;5016374;28;20117;-93
2024/03/27 01:59:05;;;;;;;9.02;6.80;;;9.90;88.10;;;;;;5018013;28;20436;-92
2024/03/27 02:01:33;;;;;;;7.43;6.38;;;10.00;87.70;;;;;;5016785;28;20105;-92
2024/03/27 02:03:59;;;;;;;10.10;7.93;;;9.90;87.50;;;;;;5007216;28;20057;-94
2024/03/27 02:06:25;;;;;;;9.35;6.75;;;10.00;87.40;;;;;;5016863;28;20476;-92
2024/03/27 02:08:51;;;;;;;12.15;6.68;;;10.10;87.00;;;;;;5017177;28;20054;-93
2024/03/27 02:11:17;;;;;;;9.32;6.68;;;9.90;87.40;;;;;;5009372;28;20026;-91
2024/03/27 02:13:44;;;;;;;9.95;6.40;;;9.80;88.00;;;;;;5001112;28;20030;-92
2024/03/27 02:16:10;;;;;;;9.40;6.95;;;9.80;87.90;;;;;;5015439;28;20052;-93
2024/03/27 02:18:36;;;;;;;9.88;6.80;;;9.80;87.80;;;;;;5011684;28;20033;-92
2024/03/27 02:21:03;;;;;;;10.50;7.03;;;9.70;87.90;;;;;;5016290;28;20086;-89
2024/03/27 02:23:36;;;;;;;9.82;6.45;;;9.80;88.00;;;;;;5016391;28;20512;-94
2024/03/27 02:26:32;;;;;;;11.43;6.22;;;9.80;87.70;;;;;;5012230;28;20038;-92
2024/03/27 02:28:57;;;;;;;9.80;7.05;;;9.90;87.50;;;;;;5008266;28;20042;-92
2024/03/27 02:31:23;;;;;;;8.98;6.30;;;9.90;86.90;;;;;;5015303;28;20018;-93
2024/03/27 02:33:49;;;;;;;13.57;7.28;;;10.00;86.60;;;;;;5016205;28;20552;-94
2024/03/27 02:36:14;;;;;;;10.25;7.05;;;10.00;86.40;;;;;;5016101;28;20030;-93
2024/03/27 02:38:40;;;;;;;10.02;7.00;;;9.90;87.00;;;;;;5015666;28;20029;-92
2024/03/27 02:41:05;;;;;;;10.25;7.57;;;9.90;86.90;;;;;;5013763;28;20029;-94
2024/03/27 02:43:31;;;;;;;12.43;7.93;;;9.80;87.20;;;;;;5005185;28;20242;-94
2024/03/27 02:45:57;;;;;;;8.68;6.50;;;9.80;87.60;;;;;;5012798;28;20033;-93
2024/03/27 02:48:22;;;;;;;7.68;5.90;;;9.70;87.70;;;;;;5016325;28;20033;-93
2024/03/27 02:50:48;;;;;;;8.85;6.05;;;9.70;87.80;;;;;;5015929;28;20024;-93
2024/03/27 02:53:13;;;;;;;9.07;6.57;;;9.70;88.10;;;;;;5007700;28;20577;-93
2024/03/27 02:55:39;;;;;;;8.52;5.57;;;9.70;88.30;;;;;;5003909;28;20058;-92
2024/03/27 02:58:04;;;;;;;9.55;5.82;;;9.60;88.60;;;;;;5005817;28;20361;-92
2024/03/27 03:00:30;;;;;;;8.75;6.40;;;9.50;89.20;;;;;;5015702;28;20038;-92
2024/03/27 03:02:56;;;;;;;9.25;6.50;;;9.50;89.80;;;;;;5015971;28;20083;-93
2024/03/27 03:05:21;;;;;;;7.20;6.10;;;9.40;90.10;;;;;;5015020;28;20030;-92
2024/03/27 03:07:47;;;;;;;9.98;5.32;;;9.40;91.20;;;;;;5012978;28;20049;-92
2024/03/27 03:10:13;;;;;;;16.25;6.72;;;9.30;91.10;;;;;;5001472;28;20057;-91
2024/03/27 03:12:38;;;;;;;6.60;5.82;;;9.20;91.30;;;;;;5009920;28;20034;-93
2024/03/27 03:15:05;;;;;;;8.95;4.97;;;9.20;91.80;;;;;;5015375;28;20061;-92
2024/03/27 03:17:31;;;;;;;10.07;5.82;;;9.20;91.60;;;;;;5001713;28;20034;-93
2024/03/27 03:19:56;;;;;;;9.00;5.47;;;9.10;91.80;;;;;;5012396;28;20018;-93
2024/03/27 03:22:22;;;;;;;8.80;5.85;;;8.90;92.60;;;;;;5015320;28;20030;-92
2024/03/27 03:24:49;;;;;;;11.15;6.03;;;8.90;93.10;;;;;;5015436;28;20408;-92
2024/03/27 03:27:16;;;;;;;9.40;5.90;;;8.80;93.50;;;;;;5011033;28;20045;-92
2024/03/27 03:29:41;;;;;;;8.15;5.60;;;8.90;93.70;;;;;;5015130;28;20088;-92
2024/03/27 03:32:07;;;;;;;12.85;7.35;;;8.90;93.70;;;;;;5014392;28;20030;-93
2024/03/27 03:34:33;;;;;;;8.38;5.70;;;8.70;93.70;;;;;;5012977;28;20439;-93
2024/03/27 03:36:58;;;;;;;8.73;5.82;;;8.50;94.60;;;;;;5015760;28;20435;-92
2024/03/27 03:39:24;;;;;;;6.90;5.40;;;8.40;95.30;;;;;;5014653;28;20100;-94
2024/03/27 03:41:49;;;;;;;8.77;5.45;;;8.40;95.70;;;;;;5014682;28;20075;-93
2024/03/27 03:44:15;;;;;;;13.57;6.10;;;8.40;95.80;;;;;;5011755;28;20026;-94
2024/03/27 03:46:41;;;;;;;8.65;6.40;;;8.40;95.80;;;;;;5014651;28;20109;-93
2024/03/27 03:49:07;;;;;;;8.40;5.70;;;8.40;95.60;;;;;;5014981;28;20109;-92
2024/03/27 03:51:32;;;;;;;9.15;5.57;;;8.30;95.80;;;;;;5014613;28;20022;-91
2024/03/27 03:53:58;;;;;;;10.07;6.03;;;8.30;95.70;;;;;;5014648;28;20651;-93
2024/03/27 03:56:24;;;;;;;9.13;5.93;;;8.30;94.40;;;;;;5014132;28;20639;-94
2024/03/27 03:58:49;;;;;;;11.73;6.68;;;8.10;95.00;;;;;;5015260;28;20523;-92
2024/03/27 04:01:15;;;;;;;9.43;6.45;;;8.10;95.30;;;;;;5007019;28;20033;-93
2024/03/27 04:03:41;;;;;;;6.40;5.68;;;7.90;96.00;;;;;;5008560;28;20520;-92
2024/03/27 04:06:06;;;;;;;9.23;5.68;;;7.80;97.00;;;;;;5010662;28;20026;-92
2024/03/27 04:08:32;;;;;;;8.52;6.28;;;7.80;97.70;;;;;;5007376;28;20037;-92
2024/03/27 04:11:02;;;;;;;9.38;6.25;;;7.80;97.40;;;;;;5013598;28;20109;-94
2024/03/27 04:13:28;;;;;;;15.82;7.57;;;7.70;98.50;;;;;;5014199;28;20025;-92
2024/03/27 04:15:54;;;;;;;9.70;7.22;;;7.80;98.20;;;;;;5006940;28;20029;-93
2024/03/27 04:18:20;;;;;;;9.70;6.13;;;7.90;97.60;;;;;;4996080;28;20044;-93
2024/03/27 04:20:46;;;;;;;9.38;6.00;;;7.80;97.10;;;;;;5013800;28;20034;-92
2024/03/27 04:23:11;;;;;;;8.25;6.75;;;7.90;96.80;;;;;;5014429;28;20102;-92
2024/03/27 04:25:37;;;;;;;12.25;6.55;;;7.80;97.70;;;;;;5014555;28;20045;-92
2024/03/27 04:28:04;;;;;;;12.55;6.90;;;7.90;98.20;;;;;;5001760;28;20583;-93
2024/03/27 04:30:30;;;;;;;9.75;6.47;;;7.80;98.50;;;;;;5003041;28;20476;-93
2024/03/27 04:32:55;;;;;;;9.23;6.97;;;7.80;98.60;;;;;;5003427;28;20090;-94
2024/03/27 04:35:21;;;;;;;8.02;5.35;;;7.80;98.50;;;;;;5016481;28;20519;-92
2024/03/27 04:37:47;;;;;;;9.25;6.15;;;7.80;98.70;;;;;;5007867;28;20057;-93
2024/03/27 04:40:12;;;;;;;7.57;6.30;;;7.80;98.60;;;;;;5013144;28;20050;-92
2024/03/27 04:42:39;;;;;;;8.02;5.82;;;7.80;98.30;;;;;;4996719;28;20030;-94
2024/03/27 04:45:07;;;;;;;12.98;5.72;;;7.70;98.60;;;;;;5010362;28;20073;-92
2024/03/27 04:47:33;;;;;;;10.45;5.82;;;7.80;97.90;;;;;;5014085;28;20030;-91
2024/03/27 04:49:59;;;;;;;10.82;6.35;;;7.70;98.20;;;;;;5004643;28;20546;-93
2024/03/27 04:52:25;;;;;;;9.35;7.57;;;7.70;98.10;;;;;;5007749;28;20182;-93
2024/03/27 04:54:51;;;;;;;12.63;8.15;;;7.70;99.30;;;;;;4994247;28;20022;-91
2024/03/27 04:57:17;;;;;;;10.82;6.70;;;7.70;99.90;;;;;;4997735;28;20031;-93
2024/03/27 04:59:42;;;;;;;9.30;7.32;;;7.70;99.90;;;;;;4994672;28;20050;-92
2024/03/27 05:02:08;;;;;;;14.05;6.88;;;7.80;99.90;;;;;;4993323;28;20053;-92
2024/03/27 05:04:34;;;;;;;8.15;7.25;;;7.80;99.90;;;;;;4991853;28;20026;-93
2024/03/27 05:07:00;;;;;;;9.88;6.30;;;7.80;99.90;;;;;;4997102;28;20089;-93
2024/03/27 05:09:26;;;;;;;10.70;8.43;;;7.80;99.90;;;;;;4998520;28;20033;-93
2024/03/27 05:11:52;;;;;;;17.88;8.73;;;7.70;99.90;;;;;;4996949;28;20050;-93
2024/03/27 05:14:17;;;;;;;10.02;7.00;;;7.70;99.80;;;;;;5007927;28;20030;-91
2024/03/27 05:16:43;;;;;;;10.57;7.60;;;7.70;99.90;;;;;;5000042;28;20496;-92
2024/03/27 05:19:09;;;;;;;8.30;6.28;;;7.70;99.90;;;;;;4997129;28;20054;-92
2024/03/27 05:21:36;;;;;;;10.93;7.70;;;7.60;99.90;;;;;;4995328;28;20026;-92
2024/03/27 05:24:02;;;;;;;8.15;5.32;;;7.70;99.90;;;;;;4991601;28;20532;-91
2024/03/27 05:26:28;;;;;;;12.90;7.35;;;7.70;99.90;;;;;;4997811;28;20034;-91
2024/03/27 05:28:55;;;;;;;9.63;5.55;;;7.60;99.90;;;;;;4994551;28;20019;-91
2024/03/27 05:31:21;;;;;;;27.38;9.05;;;7.60;99.90;;;;;;4998526;28;20042;-92
2024/03/27 05:33:47;;;;;;;8.20;6.30;;;7.50;99.90;;;;;;4998626;28;20145;-92
2024/03/27 05:36:13;;;;;;;10.90;7.03;;;7.50;99.90;;;;;;5016019;28;20026;-92
2024/03/27 05:38:39;;;;;;;9.82;6.60;;;7.40;99.90;;;;;;5017505;28;20026;-91
2024/03/27 05:41:05;;;;;;;10.70;7.63;;;7.50;99.90;;;;;;5018078;28;20034;-91
2024/03/27 05:43:30;;;;;;;16.27;7.57;;;7.70;99.90;;;;;;5018327;28;20033;-92
2024/03/27 05:45:56;;;;;;;14.57;7.88;;;7.70;99.90;;;;;;5015666;28;20104;-91
2024/03/27 05:48:23;;;;;;;14.85;8.15;;;7.70;99.90;;;;;;5016829;28;20095;-93
2024/03/27 05:50:52;;;;;;;21.73;8.98;;;7.60;99.90;;;;;;5017638;28;20025;-92
2024/03/27 05:53:18;;;;;;;15.38;10.23;;;7.50;99.90;;;;;;5012545;28;20034;-91
2024/03/27 05:55:57;;;;;;;15.73;8.23;;;7.60;99.90;;;;;;5002600;28;20026;-93
2024/03/27 05:58:23;;;;;;;11.00;7.97;;;7.60;99.90;;;;;;5001516;28;20480;-93
2024/03/27 06:00:48;;;;;;;10.68;7.55;;;7.60;99.90;;;;;;5005623;28;20034;-92
2024/03/27 06:03:14;;;;;;;9.10;7.30;;;7.70;99.90;;;;;;5016582;28;20034;-95
2024/03/27 06:05:41;;;;;;;10.98;6.57;;;7.70;99.90;;;;;;5012766;28;20026;-94
2024/03/27 06:08:07;;;;;;;12.75;7.78;;;7.70;99.90;;;;;;5013901;28;20033;-93
2024/03/27 06:10:33;;;;;;;15.70;8.90;;;7.70;99.90;;;;;;4995423;28;20022;-90
2024/03/27 06:13:03;;;;;;;12.55;8.18;;;7.80;99.90;;;;;;4999642;28;20129;-94
2024/03/27 06:15:32;;;;;;;18.52;7.38;;;7.90;99.90;;;;;;5019662;28;20100;-95
2024/03/27 06:18:01;;;;;;;17.10;8.27;;;7.80;99.90;;;;;;5030106;28;20042;-96
2024/03/27 06:20:27;;;;;;;9.70;6.28;;;7.90;99.90;;;;;;5030826;28;20033;-96
2024/03/27 06:22:54;;;;;;;10.63;7.47;;;8.00;99.90;;;;;;5031131;28;20042;-96
2024/03/27 06:25:20;;;;;;;12.48;7.72;;;7.90;99.90;;;;;;5026735;28;20030;-95
2024/03/27 06:27:45;;;;;;;9.52;7.28;;;8.00;99.90;;;;;;5011008;28;20038;-92
2024/03/27 06:30:12;;;;;;;15.43;8.05;;;8.00;99.90;;;;;;5002262;28;20479;-91
2024/03/27 06:32:39;;;;;;;14.02;7.65;;;8.00;99.90;;;;;;4997728;28;20037;-92
2024/03/27 06:35:05;;;;;;;10.63;7.95;;;8.00;99.90;;;;;;5014780;28;20022;-93
2024/03/27 06:37:31;;;;;;;9.07;6.40;;;8.10;99.90;;;;;;5014714;28;20120;-92
2024/03/27 06:39:57;;;;;;;13.45;7.88;;;8.10;99.90;;;;;;5014206;28;20523;-94
2024/03/27 06:42:23;;;;;;;11.90;8.00;;;8.20;99.90;;;;;;5014185;28;20036;-91
2024/03/27 06:44:49;;;;;;;11.35;7.68;;;8.20;99.90;;;;;;5015070;28;20111;-92
2024/03/27 06:47:15;;;;;;;20.83;8.40;;;8.30;99.90;;;;;;5015124;28;20496;-91
2024/03/27 06:49:40;;;;;;;15.57;10.07;;;8.30;99.90;;;;;;5015284;28;20057;-91
2024/03/27 06:52:06;;;;;;;16.20;7.82;;;8.30;99.90;;;;;;5013909;28;20031;-92
2024/03/27 06:54:32;;;;;;;14.48;7.90;;;8.30;99.90;;;;;;4998738;28;20104;-93
2024/03/27 06:56:58;;;;;;;9.95;6.78;;;8.30;99.90;;;;;;5011040;28;20660;-94
2024/03/27 06:59:23;;;;;;;13.10;7.07;;;8.40;99.90;;;;;;4997875;28;20061;-94
2024/03/27 07:01:49;;;;;;;12.25;7.18;;;8.50;99.90;;;;;;5009861;28;20091;-93
2024/03/27 07:04:14;;;;;;;10.70;7.88;;;8.60;99.90;;;;;;5006872;28;20060;-94
2024/03/27 07:06:40;;;;;;;8.98;6.85;;;8.70;99.90;;;;;;5015298;28;20030;-93
2024/03/27 07:09:06;;;;;;;12.10;8.65;;;8.70;99.90;;;;;;5014807;28;20026;-93
2024/03/27 07:11:32;;;;;;;16.10;8.40;;;8.70;99.90;;;;;;5016757;28;20018;-92
2024/03/27 07:13:57;;;;;;;11.77;7.88;;;8.70;99.90;;;;;;5016166;28;20322;-93
2024/03/27 07:16:23;;;;;;;14.30;8.48;;;8.70;99.90;;;;;;5015951;28;20029;-92
2024/03/27 07:18:49;;;;;;;15.32;8.52;;;8.70;99.90;;;;;;5009598;28;20041;-92
2024/03/27 07:21:14;;;;;;;12.90;8.20;;;8.70;99.90;;;;;;5016208;28;20128;-95
2024/03/27 07:23:40;;;;;;;10.82;7.35;;;8.70;99.90;;;;;;5014669;28;20396;-94
2024/03/27 07:26:07;;;;;;;11.57;8.38;;;8.90;99.90;;;;;;5015291;28;20096;-93
2024/03/27 07:28:32;;;;;;;11.80;8.70;;;9.00;99.90;;;;;;5010568;28;20689;-92
2024/03/27 07:30:58;;;;;;;12.55;9.25;;;9.10;99.90;;;;;;5004159;28;20033;-92
2024/03/27 07:33:25;;;;;;;13.98;8.32;;;9.10;99.90;;;;;;5016585;28;20048;-92
2024/03/27 07:35:51;;;;;;;12.75;7.78;;;9.10;99.90;;;;;;5001153;28;20022;-95
2024/03/27 07:38:17;;;;;;;13.18;7.78;;;9.20;99.90;;;;;;5006700;28;20145;-93
2024/03/27 07:40:43;;;;;;;13.13;8.68;;;9.20;99.90;;;;;;5014879;28;20116;-92
2024/03/27 07:43:08;;;;;;;14.25;7.70;;;9.30;99.90;;;;;;5005926;28;20109;-92
2024/03/27 07:45:34;;;;;;;14.43;8.07;;;9.40;99.50;;;;;;5012055;28;20046;-93
2024/03/27 07:48:00;;;;;;;13.65;8.18;;;9.60;99.00;;;;;;5016642;28;20472;-93
2024/03/27 07:50:26;;;;;;;12.45;8.15;;;9.60;98.00;;;;;;5006540;28;20034;-93
2024/03/27 07:52:51;;;;;;;11.18;7.63;;;9.60;97.10;;;;;;5010495;28;20025;-92
2024/03/27 07:55:17;;;;;;;15.52;8.77;;;9.80;97.40;;;;;;5015641;28;20061;-92
2024/03/27 07:57:43;;;;;;;10.18;7.22;;;9.90;97.60;;;;;;5015461;28;20033;-93
2024/03/27 08:00:11;;;;;;;10.75;6.57;;;9.90;96.70;;;;;;4998918;28;20089;-92
2024/03/27 08:02:38;;;;;;;13.63;7.68;;;9.80;96.50;;;;;;5014671;28;20053;-92
2024/03/27 08:05:05;;;;;;;10.80;6.95;;;9.70;98.20;;;;;;5015510;28;20029;-92
2024/03/27 08:07:31;;;;;;;11.18;6.13;;;9.80;97.70;;;;;;5015565;28;20018;-93
2024/03/27 08:09:57;;;;;;;9.40;7.18;;;9.90;97.60;;;;;;5015815;28;20030;-93
2024/03/27 08:12:23;;;;;;;21.23;6.72;;;9.90;98.50;;;;;;5010663;28;20136;-91
2024/03/27 08:14:49;;;;;;;13.10;6.85;;;10.00;98.20;;;;;;5005817;28;20038;-92
2024/03/27 08:17:14;;;;;;;12.05;7.00;;;9.90;98.80;;;;;;5007149;28;20049;-91
2024/03/27 08:19:40;;;;;;;11.55;6.75;;;10.20;99.00;;;;;;5014596;28;20034;-91
2024/03/27 08:22:09;;;;;;;13.27;7.50;;;10.40;96.00;;;;;;5004689;28;20054;-92
2024/03/27 08:24:35;;;;;;;11.50;6.65;;;10.70;95.50;;;;;;5001240;28;20024;-92
2024/03/27 08:27:02;;;;;;;9.45;6.30;;;10.70;95.60;;;;;;5004129;28;20446;-94
2024/03/27 08:29:28;;;;;;;8.55;5.55;;;10.80;96.00;;;;;;5014425;28;20024;-92
2024/03/27 08:31:55;;;;;;;8.60;5.10;;;10.80;95.90;;;;;;5014781;28;20103;-93
2024/03/27 08:34:20;;;;;;;8.95;5.97;;;10.70;95.20;;;;;;5015044;28;20025;-94
2024/03/27 08:36:46;;;;;;;9.88;5.35;;;10.70;94.60;;;;;;5014121;28;20526;-93
2024/03/27 08:39:12;;;;;;;8.00;5.13;;;10.80;94.70;;;;;;5007696;28;20077;-93
2024/03/27 08:41:38;;;;;;;8.75;5.93;;;10.80;95.10;;;;;;5007563;28;20081;-93
2024/03/27 08:44:04;;;;;;;8.18;4.88;;;10.80;95.20;;;;;;5015646;28;20061;-92
2024/03/27 08:46:30;;;;;;;8.32;6.13;;;11.10;95.80;;;;;;5002768;28;20041;-93
2024/03/27 08:48:56;;;;;;;7.93;6.00;;;11.20;95.70;;;;;;5009318;28;20046;-93
2024/03/27 08:51:22;;;;;;;8.57;6.07;;;11.20;95.80;;;;;;5015288;28;20018;-93
2024/03/27 08:53:48;;;;;;;11.70;6.50;;;11.40;94.50;;;;;;5010576;28;20035;-92
2024/03/27 08:56:15;;;;;;;9.18;5.88;;;11.60;94.00;;;;;;5008073;28;20061;-93
2024/03/27 08:58:41;;;;;;;11.00;6.40;;;11.50;94.50;;;;;;5015601;28;20037;-93
2024/03/27 09:01:14;;;;;;;10.43;6.50;;;11.50;95.20;;;;;;5015493;28;20215;-93
2024/03/27 09:03:40;;;;;;;7.60;5.50;;;11.60;95.40;;;;;;5016976;28;20743;-93
2024/03/27 09:06:07;;;;;;;9.25;6.85;;;11.80;94.50;;;;;;5018610;28;20029;-93
2024/03/27 09:08:33;;;;;;;10.00;6.38;;;11.70;94.50;;;;;;5015837;28;20030;-93
2024/03/27 09:10:59;;;;;;;10.55;5.78;;;11.40;95.20;;;;;;5018615;28;20056;-93
2024/03/27 09:13:25;;;;;;;9.48;5.95;;;11.50;95.70;;;;;;5016810;28;20022;-91
2024/03/27 09:15:51;;;;;;;10.30;6.05;;;11.70;94.80;;;;;;5018782;28;20049;-92
2024/03/27 09:18:17;;;;;;;11.43;6.70;;;11.90;94.60;;;;;;5017977;28;20488;-90
2024/03/27 09:20:43;;;;;;;9.80;6.15;;;12.10;93.80;;;;;;5020997;28;20034;-93
2024/03/27 09:23:09;;;;;;;8.05;5.45;;;12.20;92.20;;;;;;5014385;28;20030;-93
2024/03/27 09:25:34;;;;;;;11.85;6.43;;;11.90;92.50;;;;;;5016732;28;20037;-93
2024/03/27 09:28:00;;;;;;;10.00;5.70;;;11.90;92.90;;;;;;5017079;28;20029;-94
2024/03/27 09:30:25;;;;;;;11.88;5.70;;;11.80;93.60;;;;;;5017946;28;20054;-93
2024/03/27 09:32:51;;;;;;;11.15;5.40;;;11.60;95.20;;;;;;5017551;28;20026;-92
2024/03/27 09:35:17;;;;;;;9.55;5.75;;;11.60;96.10;;;;;;5017361;28;20042;-93
2024/03/27 09:37:42;;;;;;;8.88;5.90;;;11.50;96.40;;;;;;5018116;28;20040;-92
2024/03/27 09:40:08;;;;;;;8.93;6.35;;;11.20;97.80;;;;;;5016855;28;20030;-92
2024/03/27 09:42:36;;;;;;;9.25;5.90;;;10.90;97.70;;;;;;5002803;28;20121;-92
2024/03/27 09:45:02;;;;;;;7.85;5.43;;;10.70;99.80;;;;;;5010852;28;20106;-93
2024/03/27 09:47:31;;;;;;;10.27;5.72;;;10.60;99.10;;;;;;5018176;28;20057;-92
2024/03/27 09:49:57;;;;;;;8.20;5.03;;;10.50;98.50;;;;;;5024122;28;20034;-89
2024/03/27 09:52:24;;;;;;;6.88;4.93;;;10.20;99.50;;;;;;5018193;28;20102;-92
2024/03/27 09:54:51;;;;;;;7.82;4.47;;;10.20;99.20;;;;;;5017872;28;20420;-92
2024/03/27 09:57:17;;;;;;;6.13;4.40;;;10.20;99.30;;;;;;5016547;28;20465;-92
2024/03/27 09:59:43;;;;;;;7.53;5.13;;;10.20;98.60;;;;;;5014880;28;20088;-92
2024/03/27 10:02:12;;;;;;;8.05;4.05;;;10.20;97.10;;;;;;5016900;28;20455;-92
2024/03/27 10:04:38;;;;;;;6.13;4.05;;;10.10;96.60;;;;;;5008709;28;20034;-92
2024/03/27 10:07:06;;;;;;;7.20;3.92;;;10.10;97.00;;;;;;5014870;28;20053;-94
2024/03/27 10:09:33;;;;;;;9.75;4.45;;;10.10;97.80;;;;;;5016590;28;20491;-92
2024/03/27 10:11:59;;;;;;;5.60;3.83;;;10.10;95.60;;;;;;5018295;28;20040;-92
2024/03/27 10:14:24;;;;;;;5.90;4.28;;;10.00;95.80;;;;;;5017165;28;20018;-92
2024/03/27 10:16:50;;;;;;;8.93;3.95;;;10.00;95.90;;;;;;5018863;28;20041;-94
2024/03/27 10:19:16;;;;;;;5.93;3.83;;;9.90;96.30;;;;;;5000958;28;20443;-95
2024/03/27 10:21:41;;;;;;;8.98;5.35;;;9.80;97.70;;;;;;5017103;28;20061;-91
2024/03/27 10:24:08;;;;;;;10.13;4.28;;;9.80;97.90;;;;;;5016412;28;20054;-92
2024/03/27 10:26:34;;;;;;;9.32;4.82;;;9.90;97.30;;;;;;5002254;28;20041;-92
2024/03/27 10:29:00;;;;;;;7.55;4.38;;;9.80;96.50;;;;;;5017270;28;20088;-93
2024/03/27 10:31:27;;;;;;;5.30;3.45;;;9.70;97.90;;;;;;5017254;28;20053;-92
2024/03/27 10:33:53;;;;;;;7.00;3.70;;;9.70;98.10;;;;;;5016821;28;20041;-93
2024/03/27 10:36:26;;;;;;;6.53;3.85;;;9.70;97.20;;;;;;5017586;28;20396;-93
2024/03/27 10:38:59;;;;;;;7.38;4.40;;;9.70;97.40;;;;;;5010502;28;20026;-90
2024/03/27 10:41:25;;;;;;;5.25;2.90;;;9.60;97.10;;;;;;5008565;28;20053;-94
2024/03/27 10:43:55;;;;;;;5.70;3.50;;;9.60;96.60;;;;;;5009493;28;20114;-93
2024/03/27 10:46:22;;;;;;;4.97;2.60;;;9.60;96.40;;;;;;5009002;28;20030;-94
2024/03/27 10:48:48;;;;;;;6.15;3.67;;;9.50;96.50;;;;;;5016750;28;20037;-94
2024/03/27 10:51:15;;;;;;;6.22;2.95;;;9.50;96.60;;;;;;5017013;28;20034;-92
2024/03/27 10:53:41;;;;;;;5.57;2.05;;;9.40;95.90;;;;;;5005088;28;20018;-93
2024/03/27 10:56:09;;;;;;;4.05;2.40;;;9.50;96.20;;;;;;5008589;28;20061;-93
2024/03/27 10:58:37;;;;;;;2.70;1.77;;;9.40;95.90;;;;;;5016504;28;20032;-92
2024/03/27 11:01:03;;;;;;;2.25;2.05;;;9.40;97.50;;;;;;5014325;28;20026;-92
2024/03/27 11:03:29;;;;;;;4.47;1.73;;;9.30;99.50;;;;;;5016376;28;20401;-93
2024/03/27 11:05:58;;;;;;;3.33;1.75;;;9.20;99.90;;;;;;5011902;28;20045;-92
2024/03/27 11:08:26;;;;;;;2.92;1.70;;;9.30;99.90;;;;;;5004620;28;20038;-92
2024/03/27 11:11:09;;;;;;;2.63;1.23;;;9.20;99.90;;;;;;5012573;28;20033;-92
2024/03/27 11:13:35;;;;;;;3.33;1.90;;;9.10;99.90;;;;;;5016371;28;20484;-93
2024/03/27 11:16:01;;;;;;;1.60;1.30;;;8.90;99.90;;;;;;5016404;28;20030;-91
2024/03/27 11:18:32;;;;;;;3.60;1.52;;;8.90;99.90;;;;;;5015508;28;20026;-92
2024/03/27 11:20:58;;;;;;;3.03;1.55;;;9.10;99.90;;;;;;5008891;28;20080;-92
2024/03/27 11:23:34;;;;;;;2.65;1.50;;;9.20;99.90;;;;;;5008952;28;20037;-93
2024/03/27 11:26:02;;;;;;;2.05;1.45;;;9.40;99.90;;;;;;5015623;28;20069;-91
2024/03/27 11:28:28;;;;;;;2.17;1.27;;;9.40;99.90;;;;;;5009312;28;20022;-93
2024/03/27 11:30:55;;;;;;;2.33;1.63;;;9.30;99.90;;;;;;5012028;28;20048;-93
2024/03/27 11:33:24;;;;;;;2.00;1.27;;;9.20;99.90;;;;;;5011579;28;20069;-93
2024/03/27 11:35:50;;;;;;;4.53;3.08;;;9.20;99.90;;;;;;5005567;28;20037;-93
2024/03/27 11:38:20;;;;;;;1.63;1.10;;;9.20;99.90;;;;;;5012978;28;20025;-92
2024/03/27 11:40:50;;;;;;;2.45;1.55;;;9.20;99.90;;;;;;5015263;28;20075;-94
2024/03/27 11:43:16;;;;;;;3.42;1.38;;;9.20;99.90;;;;;;5014005;28;20037;-91
2024/03/27 11:45:43;;;;;;;2.80;1.63;;;9.20;99.90;;;;;;5014157;28;20053;-92
2024/03/27 11:48:08;;;;;;;1.92;1.65;;;9.00;98.90;;;;;;5015524;28;20047;-93
2024/03/27 11:50:34;;;;;;;3.40;2.25;;;9.00;99.90;;;;;;5021854;28;20029;-93
2024/03/27 11:53:00;;;;;;;2.33;1.58;;;9.20;99.30;;;;;;5021651;28;20029;-92
2024/03/27 11:55:25;;;;;;;2.08;1.73;;;9.10;97.70;;;;;;5019881;28;20022;-91
2024/03/27 11:57:51;;;;;;;2.42;1.90;;;9.00;96.30;;;;;;5019098;28;20025;-92
2024/03/27 12:00:18;;;;;;;2.38;2.03;;;9.10;96.20;;;;;;5008469;28;20141;-93
2024/03/27 12:02:44;;;;;;;2.40;1.90;;;9.40;93.90;;;;;;5014333;28;20485;-90
2024/03/27 12:05:10;;;;;;;2.55;2.35;;;9.30;93.40;;;;;;5009864;28;20779;-93
2024/03/27 12:07:36;;;;;;;2.72;1.95;;;9.50;93.00;;;;;;5016179;28;20127;-93
2024/03/27 12:10:09;;;;;;;3.80;1.80;;;9.60;90.90;;;;;;5008689;28;20052;-95
2024/03/27 12:12:35;;;;;;;2.75;2.30;;;9.80;91.10;;;;;;5015034;28;20025;-92
2024/03/27 12:15:02;;;;;;;1.98;1.48;;;9.70;86.10;;;;;;5014973;28;20049;-93
2024/03/27 12:17:33;;;;;;;8.80;2.72;;;9.70;87.20;;;;;;5015778;28;20692;-93
2024/03/27 12:20:06;;;;;;;4.03;1.67;;;9.80;85.60;;;;;;5008087;28;20026;-93
2024/03/27 12:22:33;;;;;;;3.30;3.05;;;9.80;85.90;;;;;;5013321;28;20030;-92
2024/03/27 12:24:59;;;;;;;2.50;1.65;;;9.70;85.00;;;;;;5016933;28;20488;-91
2024/03/27 12:27:31;;;;;;;3.72;2.40;;;10.10;85.30;;;;;;5008425;28;20042;-93
2024/03/27 12:29:56;;;;;;;2.47;1.83;;;10.20;81.30;;;;;;5005553;28;20172;-93
2024/03/27 12:32:25;;;;;;;2.40;2.20;;;9.90;83.00;;;;;;4998276;28;20068;-92
2024/03/27 12:34:54;;;;;;;6.15;2.75;;;10.00;82.10;;;;;;5011427;28;20105;-92
2024/03/27 12:37:20;;;;;;;2.72;1.67;;;10.30;82.00;;;;;;5015365;28;20417;-93
2024/03/27 12:39:47;;;;;;;2.65;2.22;;;10.50;80.70;;;;;;5018604;28;20014;-92
2024/03/27 12:42:14;;;;;;;3.28;2.47;;;10.50;79.50;;;;;;5019913;28;20082;-93
2024/03/27 12:44:40;;;;;;;2.80;2.10;;;10.10;80.10;;;;;;5009308;28;20060;-90